Denville, New Jersey
Current Conditions -  °F | °C
As of 11:55 PM on Monday 20 Oct 2014 (Local Time) from KMMU Reporting Station
Overcast Overcast  
Wind Chill: 46°   Ceiling: 12000
Heat Index: 46°   Visibility: 10mi
Dew Point: 43°   Wind: 0mph
Humidity: 87%   Direction: NA
Pressure: 29.96"   Gusts: NA
Location:  40.89°N, 74.48°W
Report Text: KMMU 210355Z AUTO 00000KT 10SM OVC120 08/06 A2996 RMK AO2
Loading
Personal Weather Stations






























Interactive Weather Map
Tropical Storm Tracking
New forecast layout! Learn more

10-Day Weather Forecast

Advertisements
Track Severe Weather on mobile